Terminal Aerodrome Forecast
Issued by NWS Sterling, VA

Current Version | Previous Version | Graphics & Text | Print | Product List | Glossary On
Versions: 1 2 3 4 5 6 7 8 9 10 11 12 13 14 15 16 17 18 19 20 21 22 23 24 25 26 27 28 29 30
041
FTUS41 KLWX 211452 AAA
TAFIAD
TAF AMD
KIAD 211452Z 2115/2218 08011G19KT 3SM BR OVC015
     FM211900 05007KT 3SM BR OVC008
     FM220800 35005KT 3SM -SHRA BR OVC008
     FM221200 35006KT P6SM OVC010
     FM221400 34007KT P6SM OVC025
     FM221600 34007KT 5SM -SHRA OVC025=

USA.gov is the U.S. government's official web portal to all federal, state and local government web resources and services.